createdAt,value
2016-12-27T00:00:16.513Z,6.44
2016-12-27T00:01:16.508Z,6.55
2016-12-27T00:02:16.491Z,6.46
2016-12-27T00:03:16.479Z,6.55
2016-12-27T00:04:16.468Z,6.48
2016-12-27T00:05:16.461Z,6.51
2016-12-27T00:06:16.446Z,6.41
2016-12-27T00:07:16.433Z,6.48
2016-12-27T00:08:16.427Z,6.43
2016-12-27T00:09:16.411Z,6.36
2016-12-27T00:10:16.705Z,6.36
2016-12-27T00:11:16.388Z,6.25
2016-12-27T00:12:16.381Z,6.34
2016-12-27T00:13:16.367Z,6.3
2016-12-27T00:14:16.356Z,6.25
2016-12-27T00:15:16.341Z,6.37
2016-12-27T00:16:16.335Z,6.34
2016-12-27T00:17:16.326Z,6.34
2016-12-27T00:18:16.619Z,6.38
2016-12-27T00:19:16.301Z,6.4
2016-12-27T00:20:16.288Z,6.46
2016-12-27T00:21:16.277Z,6.48
2016-12-27T00:22:16.267Z,6.54
2016-12-27T00:23:16.254Z,6.52
2016-12-27T00:24:16.242Z,6.54
2016-12-27T00:25:16.230Z,6.62
2016-12-27T00:26:16.221Z,6.59
2016-12-27T00:27:16.208Z,6.58
2016-12-27T00:28:16.196Z,6.61
2016-12-27T00:29:16.186Z,6.62
2016-12-27T00:30:16.180Z,6.7
2016-12-27T00:31:16.166Z,6.76
2016-12-27T00:32:16.149Z,6.74
2016-12-27T00:33:16.138Z,6.66
2016-12-27T00:34:16.129Z,6.76
2016-12-27T00:35:16.116Z,6.81
2016-12-27T00:36:16.107Z,6.79
2016-12-27T00:37:16.093Z,6.81
2016-12-27T00:38:16.082Z,6.91
2016-12-27T00:39:16.070Z,6.88
2016-12-27T00:40:16.062Z,6.84
2016-12-27T00:41:16.047Z,6.88
2016-12-27T00:42:16.039Z,6.87
2016-12-27T00:43:16.028Z,6.81
2016-12-27T00:44:16.015Z,6.88
2016-12-27T00:45:16.004Z,6.89
2016-12-27T00:46:15.995Z,6.85
2016-12-27T00:47:15.986Z,6.92
2016-12-27T00:48:15.972Z,6.95
2016-12-27T00:49:15.960Z,6.91
2016-12-27T00:50:15.949Z,6.95
2016-12-27T00:51:15.938Z,6.94
2016-12-27T00:52:15.927Z,6.97
2016-12-27T00:53:15.915Z,6.99
2016-12-27T00:54:15.905Z,6.99
2016-12-27T00:55:15.897Z,6.95
2016-12-27T00:56:15.882Z,6.99
2016-12-27T00:57:15.871Z,6.98
2016-12-27T00:58:15.861Z,6.97
2016-12-27T00:59:15.852Z,6.97
2016-12-27T01:00:15.835Z,6.97
2016-12-27T01:01:15.826Z,6.99
2016-12-27T01:02:15.818Z,7.05
2016-12-27T01:03:15.807Z,7.05
2016-12-27T01:04:15.794Z,6.99
2016-12-27T01:05:15.784Z,7.05
2016-12-27T01:06:15.772Z,6.94
2016-12-27T01:07:15.762Z,6.95
2016-12-27T01:08:15.749Z,6.97
2016-12-27T01:09:15.738Z,6.85
2016-12-27T01:10:15.728Z,6.99
2016-12-27T01:11:15.716Z,6.8
2016-12-27T01:12:15.707Z,6.85
2016-12-27T01:13:16.004Z,6.88
2016-12-27T01:14:15.687Z,6.85
2016-12-27T01:15:15.672Z,6.81
2016-12-27T01:16:15.660Z,6.64
2016-12-27T01:17:15.648Z,6.67
2016-12-27T01:18:15.639Z,6.64
2016-12-27T01:19:15.631Z,6.56
2016-12-27T01:20:15.619Z,6.49
2016-12-27T01:21:15.611Z,6.51
2016-12-27T01:22:15.598Z,6.48
2016-12-27T01:23:15.586Z,6.54
2016-12-27T01:24:15.571Z,6.51
2016-12-27T01:25:15.562Z,6.54
2016-12-27T01:26:15.553Z,6.48
2016-12-27T01:27:15.547Z,6.51
2016-12-27T01:28:15.529Z,6.49
2016-12-27T01:29:15.518Z,6.54
2016-12-27T01:30:15.508Z,6.52
2016-12-27T01:31:15.498Z,6.59
2016-12-27T01:32:15.483Z,6.56
2016-12-27T01:33:15.473Z,6.59
2016-12-27T01:34:15.463Z,6.59
2016-12-27T01:35:15.449Z,6.69
2016-12-27T01:36:15.441Z,6.58
2016-12-27T01:37:15.426Z,6.66
2016-12-27T01:38:15.415Z,6.66
2016-12-27T01:39:15.406Z,6.66
2016-12-27T01:40:15.698Z,6.76
2016-12-27T01:41:15.384Z,6.74
2016-12-27T01:42:15.680Z,6.76
2016-12-27T01:43:15.357Z,6.85
2016-12-27T01:44:15.350Z,6.81
2016-12-27T01:45:15.337Z,6.81
2016-12-27T01:46:15.327Z,6.91
2016-12-27T01:47:15.317Z,6.85
2016-12-27T01:48:15.312Z,6.85
2016-12-27T01:49:15.293Z,6.91
2016-12-27T01:50:15.283Z,6.85
2016-12-27T01:51:15.271Z,6.79
2016-12-27T01:52:15.261Z,6.91
2016-12-27T01:53:15.251Z,6.98
2016-12-27T01:54:15.240Z,6.99
2016-12-27T01:55:15.226Z,6.97
2016-12-27T01:56:15.222Z,6.92
2016-12-27T01:57:15.206Z,6.99
2016-12-27T01:58:15.199Z,6.98
2016-12-27T01:59:15.189Z,7.1
2016-12-27T02:00:15.174Z,6.95
2016-12-27T02:01:15.162Z,7.1
2016-12-27T02:02:15.148Z,7.05
2016-12-27T02:03:15.143Z,7.02
2016-12-27T02:04:15.129Z,6.98
2016-12-27T02:05:15.420Z,7.06
2016-12-27T02:06:15.107Z,7.05
2016-12-27T02:07:15.397Z,7.07
2016-12-27T02:08:15.086Z,7.07
2016-12-27T02:09:15.112Z,6.99
2016-12-27T02:10:15.066Z,7.09
2016-12-27T02:11:15.050Z,7.12
2016-12-27T02:12:15.044Z,7.05
2016-12-27T02:13:15.028Z,7.12
2016-12-27T02:14:15.018Z,7.09
2016-12-27T02:15:15.011Z,7.1
2016-12-27T02:16:15.000Z,6.98
2016-12-27T02:17:14.990Z,6.98
2016-12-27T02:18:14.976Z,7.05
2016-12-27T02:19:14.969Z,6.85
2016-12-27T02:20:14.957Z,6.87
2016-12-27T02:21:14.943Z,6.88
2016-12-27T02:22:14.934Z,6.81
2016-12-27T02:23:14.922Z,6.67
2016-12-27T02:24:14.910Z,6.7
2016-12-27T02:25:14.901Z,6.61
2016-12-27T02:26:14.891Z,6.61
2016-12-27T02:27:14.877Z,6.49
2016-12-27T02:28:14.866Z,6.48
2016-12-27T02:29:14.855Z,6.51
2016-12-27T02:30:14.842Z,6.34
2016-12-27T02:31:14.835Z,6.33
2016-12-27T02:32:14.820Z,6.3
2016-12-27T02:33:14.811Z,6.22
